Time;durP1;ratioP1;P1;durP2;ratioP2;P2;SDS_P1;SDS_P2;PMS_P1;PMS_P2;Temp;Humidity;BMP_temperature;BMP_pressure;BME280_temperature;BME280_humidity;BME280_pressure;Samples;Min_cycle;Max_cycle;Signal;HPM_P1;HPM_P2
2023/05/01 00:00:04;;;;;;;8.82;3.78;;;9.20;99.90;;;;;;5095457;28;20399;-70
2023/05/01 00:02:30;;;;;;;10.77;4.28;;;9.20;99.90;;;;;;5083524;28;20039;-69
2023/05/01 00:04:56;;;;;;;10.52;4.20;;;9.20;99.90;;;;;;5078544;28;20040;-70
2023/05/01 00:07:23;;;;;;;10.98;4.10;;;9.20;99.90;;;;;;5093546;28;20081;-69
2023/05/01 00:09:50;;;;;;;7.35;3.65;;;9.30;99.90;;;;;;5115635;28;20091;-69
2023/05/01 00:12:16;;;;;;;10.77;3.95;;;9.20;99.90;;;;;;5114852;28;20483;-69
2023/05/01 00:14:41;;;;;;;8.23;3.95;;;9.30;99.90;;;;;;5093282;28;20119;-69
2023/05/01 00:17:07;;;;;;;9.93;4.65;;;9.20;99.90;;;;;;5107639;28;20412;-70
2023/05/01 00:19:32;;;;;;;10.30;4.10;;;9.20;99.90;;;;;;5098467;28;20043;-69
2023/05/01 00:21:58;;;;;;;10.65;4.00;;;9.20;99.90;;;;;;5088061;28;20039;-70
2023/05/01 00:24:23;;;;;;;8.98;3.67;;;9.20;99.90;;;;;;5094920;28;20507;-69
2023/05/01 00:26:49;;;;;;;10.32;4.28;;;9.10;99.90;;;;;;5094496;28;20436;-69
2023/05/01 00:29:15;;;;;;;8.88;4.22;;;9.20;99.90;;;;;;5108190;28;20043;-69
2023/05/01 00:31:41;;;;;;;8.77;4.20;;;9.20;99.90;;;;;;5078361;28;20436;-70
2023/05/01 00:34:07;;;;;;;9.32;4.00;;;9.20;99.90;;;;;;5078836;28;20128;-69
2023/05/01 00:36:33;;;;;;;7.18;3.53;;;9.20;99.90;;;;;;5109441;28;20040;-69
2023/05/01 00:38:58;;;;;;;9.52;3.90;;;9.20;99.90;;;;;;5093391;28;20093;-69
2023/05/01 00:41:24;;;;;;;7.47;3.67;;;9.10;99.90;;;;;;5094705;28;20032;-69
2023/05/01 00:43:50;;;;;;;7.40;3.58;;;9.10;99.90;;;;;;5094648;28;20496;-69
2023/05/01 00:46:16;;;;;;;7.57;3.60;;;9.10;99.90;;;;;;5094203;28;20032;-69
2023/05/01 00:48:43;;;;;;;7.68;3.60;;;9.00;99.90;;;;;;5093353;28;20050;-70
2023/05/01 00:51:08;;;;;;;8.00;4.05;;;9.00;99.90;;;;;;5098188;28;20050;-69
2023/05/01 00:53:34;;;;;;;7.72;3.50;;;9.00;99.90;;;;;;5077338;28;20054;-69
2023/05/01 00:56:00;;;;;;;7.45;3.72;;;9.00;99.90;;;;;;5091790;28;20052;-69
2023/05/01 00:58:26;;;;;;;8.07;3.90;;;9.00;99.90;;;;;;5094293;28;20480;-69
2023/05/01 01:00:52;;;;;;;8.15;3.92;;;9.00;99.90;;;;;;5094703;28;20119;-70
2023/05/01 01:03:18;;;;;;;8.13;3.67;;;8.90;99.90;;;;;;5112400;27;20046;-69
2023/05/01 01:06:03;;;;;;;9.00;3.83;;;8.90;99.90;;;;;;5113191;28;20057;-69
2023/05/01 01:08:36;;;;;;;8.15;3.65;;;8.90;99.90;;;;;;5094442;28;20142;-69
2023/05/01 01:11:26;;;;;;;7.60;3.65;;;8.80;99.90;;;;;;5096253;28;20944;-70
2023/05/01 01:13:59;;;;;;;8.15;3.85;;;8.80;99.90;;;;;;5097675;28;20093;-69
2023/05/01 01:16:40;;;;;;;7.70;3.72;;;8.80;99.90;;;;;;5107462;28;20488;-69
2023/05/01 01:19:41;;;;;;;8.23;4.05;;;8.80;99.90;;;;;;5077291;28;20123;-69
2023/05/01 01:22:14;;;;;;;7.68;3.65;;;8.80;99.90;;;;;;5096432;28;20036;-69
2023/05/01 01:25:17;;;;;;;8.10;4.00;;;8.80;99.90;;;;;;5097320;28;20039;-69
2023/05/01 01:27:56;;;;;;;7.82;4.00;;;8.80;99.90;;;;;;5130145;27;20050;-69
2023/05/01 01:31:07;;;;;;;7.03;3.65;;;8.70;99.90;;;;;;5097165;28;20046;-69
2023/05/01 01:33:50;;;;;;;9.98;3.70;;;8.70;99.90;;;;;;5111374;27;20118;-69
2023/05/01 01:36:48;;;;;;;7.40;4.15;;;8.70;99.90;;;;;;5097729;28;20484;-69
2023/05/01 01:39:25;;;;;;;9.55;4.30;;;8.70;99.90;;;;;;5095184;28;20565;-69
2023/05/01 01:41:53;;;;;;;7.63;3.50;;;8.70;99.90;;;;;;5076758;28;20040;-69
2023/05/01 01:44:53;;;;;;;6.50;3.67;;;8.60;99.90;;;;;;5093569;28;20036;-69
2023/05/01 01:47:24;;;;;;;9.50;4.00;;;8.60;99.90;;;;;;5095120;28;20039;-69
2023/05/01 01:49:52;;;;;;;7.93;4.13;;;8.60;99.90;;;;;;5113469;28;20043;-70
2023/05/01 01:52:20;;;;;;;8.70;3.88;;;8.60;99.90;;;;;;5113698;28;20046;-68
2023/05/01 01:55:07;;;;;;;9.82;4.30;;;8.50;99.90;;;;;;5112323;28;20043;-69
2023/05/01 01:57:36;;;;;;;9.18;4.38;;;8.40;99.90;;;;;;5094122;28;20381;-69
2023/05/01 02:00:07;;;;;;;8.55;4.40;;;8.30;99.90;;;;;;5093171;28;20032;-69
2023/05/01 02:02:38;;;;;;;9.13;4.60;;;8.30;99.90;;;;;;5090684;28;20043;-69
2023/05/01 02:05:10;;;;;;;8.63;4.22;;;8.30;99.90;;;;;;5094218;28;20075;-69
2023/05/01 02:07:39;;;;;;;6.72;3.58;;;8.30;99.90;;;;;;5112433;28;20134;-69
2023/05/01 02:10:07;;;;;;;13.55;4.75;;;8.30;99.90;;;;;;5113542;28;20392;-69
2023/05/01 02:12:34;;;;;;;10.27;4.30;;;8.40;99.90;;;;;;5112299;28;20092;-69
2023/05/01 02:15:00;;;;;;;8.40;4.95;;;8.30;99.90;;;;;;5083588;28;20042;-70
2023/05/01 02:17:27;;;;;;;11.60;4.30;;;8.30;99.90;;;;;;5077519;28;20510;-69
2023/05/01 02:19:54;;;;;;;10.88;4.45;;;8.30;99.90;;;;;;5108248;28;20044;-69
2023/05/01 02:22:21;;;;;;;8.07;4.70;;;8.30;99.90;;;;;;5088653;28;20128;-70
2023/05/01 02:24:48;;;;;;;7.80;4.00;;;8.20;99.90;;;;;;5112588;28;20040;-70
2023/05/01 02:27:22;;;;;;;7.72;4.25;;;8.20;99.90;;;;;;5128892;27;20067;-69
2023/05/01 02:29:47;;;;;;;9.73;4.85;;;8.20;99.90;;;;;;5096228;28;20161;-69
2023/05/01 02:32:13;;;;;;;9.23;4.25;;;8.20;99.90;;;;;;5111926;28;20507;-69
2023/05/01 02:34:39;;;;;;;7.53;4.20;;;8.10;99.90;;;;;;5081285;28;20519;-69
2023/05/01 02:37:06;;;;;;;8.98;4.30;;;8.10;99.90;;;;;;5092020;28;20040;-69
2023/05/01 02:39:33;;;;;;;8.70;4.07;;;8.10;99.90;;;;;;5092526;28;20036;-69
2023/05/01 02:42:02;;;;;;;9.32;4.43;;;8.00;99.90;;;;;;5119511;27;20392;-69
2023/05/01 02:44:36;;;;;;;8.25;4.20;;;8.00;99.90;;;;;;5130211;27;20039;-69
2023/05/01 02:47:03;;;;;;;8.52;4.15;;;8.00;99.90;;;;;;5094827;28;20079;-69
2023/05/01 02:49:30;;;;;;;9.63;4.68;;;7.90;99.90;;;;;;5112690;28;20055;-69
2023/05/01 02:51:56;;;;;;;8.27;4.00;;;7.90;99.90;;;;;;5111697;28;20134;-69
2023/05/01 02:54:22;;;;;;;9.25;4.20;;;7.90;99.90;;;;;;5112470;28;20043;-69
2023/05/01 02:56:48;;;;;;;7.90;4.22;;;7.90;99.90;;;;;;5102558;28;20119;-69
2023/05/01 02:59:14;;;;;;;10.20;4.72;;;7.90;99.90;;;;;;5092208;28;20036;-69
2023/05/01 03:01:39;;;;;;;9.35;4.72;;;7.80;99.90;;;;;;5091502;28;20036;-69
2023/05/01 03:04:05;;;;;;;10.32;4.50;;;7.70;99.90;;;;;;5100092;28;20484;-69
2023/05/01 03:06:31;;;;;;;10.60;4.60;;;7.70;99.90;;;;;;5094508;28;20084;-69
2023/05/01 03:08:56;;;;;;;9.55;4.32;;;7.60;99.90;;;;;;5094819;28;20046;-68
2023/05/01 03:11:23;;;;;;;8.82;4.43;;;7.60;99.90;;;;;;5112614;28;20028;-69
2023/05/01 03:13:48;;;;;;;9.52;4.47;;;7.60;99.90;;;;;;5095683;28;20067;-69
2023/05/01 03:16:14;;;;;;;10.50;4.65;;;7.60;99.90;;;;;;5107355;28;20063;-68
2023/05/01 03:18:39;;;;;;;8.43;4.35;;;7.60;99.90;;;;;;5095855;28;20072;-69
2023/05/01 03:21:05;;;;;;;9.02;4.45;;;7.60;99.90;;;;;;5112200;28;20475;-69
2023/05/01 03:23:31;;;;;;;8.70;4.88;;;7.60;99.90;;;;;;5112207;28;20032;-69
2023/05/01 03:25:56;;;;;;;8.35;4.43;;;7.60;99.90;;;;;;5110152;28;20044;-69
2023/05/01 03:28:22;;;;;;;9.52;6.07;;;7.50;99.90;;;;;;5089410;28;20397;-69
2023/05/01 03:30:50;;;;;;;9.77;4.72;;;7.50;99.90;;;;;;5108734;28;20040;-69
2023/05/01 03:33:16;;;;;;;8.82;4.30;;;7.50;99.90;;;;;;5075059;28;20036;-69
2023/05/01 03:35:41;;;;;;;8.10;4.80;;;7.50;99.90;;;;;;5090527;28;20411;-69
2023/05/01 03:38:07;;;;;;;8.90;4.50;;;7.50;99.90;;;;;;5075666;28;20032;-69
2023/05/01 03:40:33;;;;;;;9.73;4.75;;;7.50;99.90;;;;;;5075194;28;20118;-69
2023/05/01 03:42:58;;;;;;;8.50;4.97;;;7.50;99.90;;;;;;5075131;28;20556;-69
2023/05/01 03:45:24;;;;;;;11.85;5.40;;;7.40;99.90;;;;;;5108659;28;20075;-69
2023/05/01 03:47:49;;;;;;;9.23;4.63;;;7.30;99.90;;;;;;5125499;27;20450;-69
2023/05/01 03:50:15;;;;;;;9.73;4.60;;;7.30;99.90;;;;;;5129169;28;20452;-69
2023/05/01 03:52:41;;;;;;;10.65;5.05;;;7.30;99.90;;;;;;5111836;28;20065;-69
2023/05/01 03:55:07;;;;;;;9.05;4.53;;;7.30;99.90;;;;;;5112087;28;20479;-69
2023/05/01 03:57:33;;;;;;;9.48;5.00;;;7.30;99.90;;;;;;5093945;28;20051;-69
2023/05/01 03:59:59;;;;;;;8.45;4.85;;;7.20;99.90;;;;;;5075726;28;20484;-69
2023/05/01 04:02:24;;;;;;;9.95;4.90;;;7.20;99.90;;;;;;5108524;28;20071;-69
2023/05/01 04:04:50;;;;;;;8.90;4.93;;;7.20;99.90;;;;;;5091241;28;20044;-70
2023/05/01 04:07:16;;;;;;;11.75;5.30;;;7.10;99.90;;;;;;5074214;28;20063;-69
2023/05/01 04:09:42;;;;;;;11.00;5.50;;;7.10;99.90;;;;;;5074967;28;20066;-69
2023/05/01 04:12:08;;;;;;;12.20;5.60;;;7.10;99.90;;;;;;5119501;27;20055;-69
2023/05/01 04:14:33;;;;;;;10.07;5.30;;;7.10;99.90;;;;;;5115039;28;20031;-69
2023/05/01 04:16:59;;;;;;;10.13;5.28;;;7.00;99.90;;;;;;5102338;28;20036;-69
2023/05/01 04:19:24;;;;;;;8.75;5.65;;;7.00;99.90;;;;;;5095146;28;20074;-69
2023/05/01 04:21:50;;;;;;;11.57;5.10;;;7.00;99.90;;;;;;5086084;28;20036;-69
2023/05/01 04:24:16;;;;;;;10.00;5.63;;;7.00;99.90;;;;;;5114478;28;20414;-69
2023/05/01 04:26:42;;;;;;;11.60;5.80;;;6.90;99.90;;;;;;5122080;27;20047;-69
2023/05/01 04:29:08;;;;;;;9.85;4.93;;;6.90;99.90;;;;;;5078098;28;20044;-69
2023/05/01 04:31:33;;;;;;;10.77;5.18;;;7.00;99.90;;;;;;5101046;28;20050;-69
2023/05/01 04:34:00;;;;;;;8.88;4.72;;;7.00;99.90;;;;;;5094937;28;20122;-69
2023/05/01 04:36:25;;;;;;;11.27;5.30;;;7.00;99.90;;;;;;5130400;27;20038;-69
2023/05/01 04:38:51;;;;;;;10.50;5.43;;;7.10;99.90;;;;;;5094906;28;20040;-69
2023/05/01 04:41:16;;;;;;;9.32;5.40;;;7.10;99.90;;;;;;5094903;28;20082;-69
2023/05/01 04:43:42;;;;;;;10.95;5.55;;;7.10;99.90;;;;;;5094970;28;20035;-69
2023/05/01 04:46:08;;;;;;;11.38;5.90;;;7.10;99.90;;;;;;5096570;28;20046;-71
2023/05/01 04:48:33;;;;;;;11.45;5.70;;;7.10;99.90;;;;;;5098211;28;20074;-71
2023/05/01 04:50:59;;;;;;;10.50;6.00;;;7.10;99.90;;;;;;5114823;28;20518;-70
2023/05/01 04:53:24;;;;;;;10.75;5.38;;;7.10;99.90;;;;;;5115042;28;20074;-71
2023/05/01 04:55:50;;;;;;;11.48;5.57;;;7.10;99.90;;;;;;5096276;28;20043;-71
2023/05/01 04:58:15;;;;;;;9.23;5.63;;;7.10;99.90;;;;;;5097717;28;20134;-71
2023/05/01 05:00:41;;;;;;;11.68;5.97;;;7.10;99.90;;;;;;5098066;28;20063;-70
2023/05/01 05:03:07;;;;;;;10.55;5.65;;;7.10;99.90;;;;;;5114602;28;20122;-70
2023/05/01 05:05:32;;;;;;;10.63;6.07;;;7.20;99.90;;;;;;5095110;28;20039;-70
2023/05/01 05:07:58;;;;;;;10.63;6.40;;;7.20;99.90;;;;;;5095194;28;20051;-71
2023/05/01 05:10:24;;;;;;;11.38;6.35;;;7.20;99.90;;;;;;5094266;28;20036;-71
2023/05/01 05:12:50;;;;;;;11.65;6.10;;;7.20;99.90;;;;;;5093665;28;20488;-71
2023/05/01 05:15:15;;;;;;;9.00;5.53;;;7.20;99.90;;;;;;5077222;28;20036;-70
2023/05/01 05:17:41;;;;;;;11.60;6.38;;;7.20;99.90;;;;;;5111428;28;20028;-71
2023/05/01 05:20:07;;;;;;;11.07;6.47;;;7.20;99.90;;;;;;5114315;28;20031;-71
2023/05/01 05:22:36;;;;;;;13.75;7.10;;;7.20;99.90;;;;;;5081838;28;20032;-70
2023/05/01 05:25:03;;;;;;;13.02;6.72;;;7.30;99.90;;;;;;5110276;28;20040;-70
2023/05/01 05:27:31;;;;;;;10.88;6.90;;;7.30;99.90;;;;;;5105628;28;20036;-71
2023/05/01 05:29:56;;;;;;;10.93;6.53;;;7.40;99.90;;;;;;5105251;28;20043;-70
2023/05/01 05:32:22;;;;;;;12.48;7.32;;;7.40;99.90;;;;;;5114097;28;20130;-71
2023/05/01 05:34:48;;;;;;;13.95;7.05;;;7.50;99.90;;;;;;5111382;28;20036;-70
2023/05/01 05:37:14;;;;;;;12.65;6.50;;;7.50;99.90;;;;;;5113096;28;20039;-70
2023/05/01 05:39:39;;;;;;;12.10;6.93;;;7.60;99.90;;;;;;5098706;27;20046;-71
2023/05/01 05:42:05;;;;;;;10.43;6.35;;;7.60;99.90;;;;;;5100121;28;20039;-70
2023/05/01 05:44:31;;;;;;;14.93;7.13;;;7.60;99.90;;;;;;5100759;27;20086;-70
2023/05/01 05:46:57;;;;;;;15.63;7.03;;;7.80;99.90;;;;;;5098854;28;20055;-70
2023/05/01 05:49:22;;;;;;;13.35;7.30;;;7.80;99.90;;;;;;5117514;27;20598;-70
2023/05/01 05:51:48;;;;;;;13.45;7.30;;;7.80;99.90;;;;;;5085681;28;20079;-70
2023/05/01 05:54:14;;;;;;;11.95;6.43;;;7.90;99.90;;;;;;5082822;28;20062;-70
2023/05/01 05:56:39;;;;;;;12.15;7.10;;;7.90;99.90;;;;;;5109533;28;20043;-70
2023/05/01 05:59:05;;;;;;;11.80;6.90;;;8.00;99.90;;;;;;5093783;28;20046;-70
2023/05/01 06:01:31;;;;;;;12.57;6.93;;;8.10;99.90;;;;;;5111623;27;20036;-70
2023/05/01 06:03:57;;;;;;;14.55;6.85;;;8.20;99.90;;;;;;5076415;28;20119;-70
2023/05/01 06:06:23;;;;;;;13.07;7.03;;;8.30;99.90;;;;;;5086540;28;20208;-70
2023/05/01 06:08:48;;;;;;;13.82;7.53;;;8.30;99.90;;;;;;5102096;28;20036;-70
2023/05/01 06:11:14;;;;;;;14.35;7.07;;;8.40;99.90;;;;;;5103931;27;20123;-70
2023/05/01 06:13:40;;;;;;;13.48;6.72;;;8.50;99.90;;;;;;5109348;28;20034;-70
2023/05/01 06:16:06;;;;;;;11.52;6.85;;;8.60;99.90;;;;;;5094278;28;20399;-70
2023/05/01 06:18:32;;;;;;;12.52;6.47;;;8.60;99.90;;;;;;5084422;28;20078;-70
2023/05/01 06:20:58;;;;;;;13.95;6.82;;;8.80;99.90;;;;;;5108688;27;20484;-70
2023/05/01 06:23:24;;;;;;;13.48;6.47;;;8.80;99.90;;;;;;5083989;28;20024;-70
2023/05/01 06:25:50;;;;;;;13.48;6.47;;;8.90;99.90;;;;;;5078309;28;20047;-70
2023/05/01 06:28:16;;;;;;;8.18;4.60;;;8.90;99.90;;;;;;5108883;28;20063;-71
2023/05/01 06:30:41;;;;;;;11.10;5.80;;;9.00;99.90;;;;;;5106917;28;20503;-71
2023/05/01 06:33:08;;;;;;;11.75;6.05;;;9.10;99.90;;;;;;5086405;28;20403;-71
2023/05/01 06:35:34;;;;;;;12.05;5.30;;;9.20;99.90;;;;;;5078231;28;20039;-72
2023/05/01 06:37:59;;;;;;;12.82;6.03;;;9.30;99.90;;;;;;5115213;27;20058;-71
2023/05/01 06:40:25;;;;;;;11.10;5.50;;;9.30;99.90;;;;;;5097910;28;20036;-70
2023/05/01 06:42:51;;;;;;;10.88;5.88;;;9.40;99.90;;;;;;5107140;28;20085;-71
2023/05/01 06:45:16;;;;;;;13.07;6.53;;;9.40;99.90;;;;;;5116987;27;20458;-71
2023/05/01 06:47:42;;;;;;;13.75;6.38;;;9.50;99.90;;;;;;5107878;28;20078;-70
2023/05/01 06:50:09;;;;;;;13.73;7.28;;;9.60;99.90;;;;;;5097193;28;20040;-72
2023/05/01 06:52:34;;;;;;;12.27;6.55;;;9.70;99.90;;;;;;5092486;28;20122;-72
2023/05/01 06:55:00;;;;;;;11.00;6.15;;;9.80;99.90;;;;;;5107939;28;20454;-71
2023/05/01 06:57:25;;;;;;;14.82;7.57;;;9.90;99.90;;;;;;5108366;28;20134;-71
2023/05/01 06:59:51;;;;;;;12.57;6.82;;;10.00;99.90;;;;;;5094230;28;20114;-71
2023/05/01 07:02:16;;;;;;;16.13;6.55;;;10.00;99.90;;;;;;5113528;27;20033;-72
2023/05/01 07:04:43;;;;;;;11.15;6.35;;;10.10;99.90;;;;;;5126129;27;20127;-72
2023/05/01 07:07:09;;;;;;;13.23;7.13;;;10.20;99.90;;;;;;5108672;28;20964;-72
2023/05/01 07:09:35;;;;;;;12.18;6.93;;;10.30;99.90;;;;;;5074706;28;20515;-72
2023/05/01 07:12:02;;;;;;;11.90;6.57;;;10.50;99.90;;;;;;5111371;27;20044;-71
2023/05/01 07:14:27;;;;;;;12.27;6.80;;;10.60;99.90;;;;;;5106587;28;20050;-72
2023/05/01 07:16:54;;;;;;;13.52;6.50;;;10.60;99.90;;;;;;5109812;28;20035;-71
2023/05/01 07:19:20;;;;;;;10.60;6.53;;;10.70;99.90;;;;;;5109997;28;20085;-71
2023/05/01 07:21:45;;;;;;;12.38;6.00;;;10.80;99.90;;;;;;5090857;28;20058;-71
2023/05/01 07:24:12;;;;;;;11.20;6.50;;;10.90;99.90;;;;;;5089038;28;20032;-72
2023/05/01 07:26:37;;;;;;;12.90;6.97;;;10.90;99.90;;;;;;5107699;28;20058;-71
2023/05/01 07:29:03;;;;;;;13.07;6.47;;;11.00;99.90;;;;;;5079617;28;20496;-71
2023/05/01 07:31:29;;;;;;;11.52;6.78;;;11.00;99.90;;;;;;5089574;28;20085;-71
2023/05/01 07:33:55;;;;;;;12.25;6.20;;;11.10;99.90;;;;;;5076255;28;20462;-71
2023/05/01 07:36:21;;;;;;;12.77;6.75;;;11.20;99.90;;;;;;5093982;28;20377;-72
2023/05/01 07:38:47;;;;;;;12.05;6.03;;;11.30;99.90;;;;;;5098657;28;20036;-71
2023/05/01 07:41:13;;;;;;;13.23;6.35;;;11.50;99.90;;;;;;5077565;28;20557;-72
2023/05/01 07:43:39;;;;;;;12.13;6.43;;;11.60;99.90;;;;;;5095739;28;20115;-72
2023/05/01 07:46:05;;;;;;;13.45;6.40;;;11.60;99.90;;;;;;5117104;28;20042;-72
2023/05/01 07:48:31;;;;;;;10.25;6.00;;;11.60;99.90;;;;;;5092704;28;20122;-72
2023/05/01 07:51:01;;;;;;;10.75;6.15;;;11.70;99.90;;;;;;5101353;28;20096;-72
2023/05/01 07:53:26;;;;;;;10.45;6.07;;;11.70;99.90;;;;;;5110262;28;20575;-72
2023/05/01 07:55:52;;;;;;;10.73;5.75;;;11.80;99.90;;;;;;5114552;28;20131;-73
2023/05/01 07:58:18;;;;;;;11.23;5.93;;;11.90;99.90;;;;;;5103170;28;20054;-72
2023/05/01 08:00:46;;;;;;;10.07;5.65;;;11.90;99.90;;;;;;5113507;28;20046;-72
2023/05/01 08:03:11;;;;;;;10.55;5.68;;;11.90;99.90;;;;;;5114413;28;20067;-72
2023/05/01 08:05:43;;;;;;;11.77;6.00;;;12.00;99.90;;;;;;5097459;28;20082;-72
2023/05/01 08:08:09;;;;;;;12.68;6.03;;;12.00;99.90;;;;;;5095403;28;20035;-72
2023/05/01 08:10:35;;;;;;;13.75;6.28;;;12.20;99.90;;;;;;5078658;28;20384;-72
2023/05/01 08:13:00;;;;;;;10.27;5.63;;;12.30;99.90;;;;;;5095563;28;20044;-72
2023/05/01 08:15:27;;;;;;;10.98;6.20;;;12.30;99.90;;;;;;5078115;28;20871;-72
2023/05/01 08:17:52;;;;;;;15.15;6.25;;;12.40;99.90;;;;;;5091308;28;20096;-72
2023/05/01 08:20:18;;;;;;;10.82;5.63;;;12.50;99.90;;;;;;5081210;28;20434;-72
2023/05/01 08:22:44;;;;;;;12.57;5.93;;;12.50;99.90;;;;;;5095131;28;20036;-72
2023/05/01 08:25:09;;;;;;;14.20;5.82;;;12.50;99.90;;;;;;5128984;27;20047;-72
2023/05/01 08:27:35;;;;;;;11.32;5.50;;;12.60;99.90;;;;;;5113650;28;20039;-72
2023/05/01 08:30:00;;;;;;;11.45;6.00;;;12.70;99.90;;;;;;5103909;28;20499;-72
2023/05/01 08:32:26;;;;;;;11.50;5.95;;;12.80;99.90;;;;;;5093729;28;20039;-72
2023/05/01 08:34:51;;;;;;;14.48;5.70;;;12.80;99.90;;;;;;5107084;28;20079;-72
2023/05/01 08:37:18;;;;;;;10.30;5.70;;;12.90;99.90;;;;;;5084952;28;20031;-72
2023/05/01 08:39:43;;;;;;;13.38;5.90;;;13.00;99.90;;;;;;5098010;28;20031;-72
2023/05/01 08:42:09;;;;;;;11.80;5.85;;;13.10;99.90;;;;;;5114918;28;20119;-72
2023/05/01 08:44:38;;;;;;;12.07;6.03;;;13.20;99.90;;;;;;5103903;28;20054;-72
2023/05/01 08:47:13;;;;;;;13.65;5.93;;;13.30;99.90;;;;;;5095991;28;20036;-72
2023/05/01 08:49:41;;;;;;;11.45;5.25;;;13.40;99.90;;;;;;5098190;28;20051;-73
2023/05/01 08:52:07;;;;;;;10.05;5.30;;;13.50;99.90;;;;;;5115172;28;20039;-72
2023/05/01 08:54:34;;;;;;;12.13;5.05;;;13.70;99.90;;;;;;5114772;28;20040;-72
2023/05/01 08:57:03;;;;;;;10.07;4.75;;;13.80;99.90;;;;;;5102550;27;20381;-72
2023/05/01 08:59:35;;;;;;;13.43;5.43;;;13.90;99.90;;;;;;5115367;27;20036;-72
2023/05/01 09:02:04;;;;;;;;;;;13.90;99.90;;;;;;5098610;28;20131;-72
2023/05/01 09:04:38;;;;;;;10.93;4.13;;;14.10;99.90;;;;;;5097103;28;19920;-72
2023/05/01 09:07:04;;;;;;;11.65;5.18;;;14.10;99.90;;;;;;5127783;27;20498;-72
2023/05/01 09:09:31;;;;;;;9.20;4.45;;;14.20;99.90;;;;;;5118310;27;20040;-72
2023/05/01 09:12:07;;;;;;;8.98;3.63;;;14.40;99.90;;;;;;5110634;28;20096;-72
2023/05/01 09:14:33;;;;;;;10.43;3.55;;;14.60;99.90;;;;;;5093577;28;20040;-72
2023/05/01 09:16:59;;;;;;;9.35;3.13;;;14.70;99.90;;;;;;5094014;28;20081;-72
2023/05/01 09:19:25;;;;;;;10.38;3.92;;;14.80;99.90;;;;;;5110787;28;20051;-72
2023/05/01 09:21:53;;;;;;;7.93;2.85;;;14.80;99.90;;;;;;5082463;28;20036;-72
2023/05/01 09:24:20;;;;;;;7.32;2.95;;;14.80;99.90;;;;;;5104650;28;20036;-72
2023/05/01 09:26:47;;;;;;;9.73;2.97;;;14.90;99.90;;;;;;5114358;28;20043;-73
2023/05/01 09:29:37;;;;;;;7.80;2.83;;;15.00;99.90;;;;;;5114364;28;20050;-73
2023/05/01 09:32:12;;;;;;;8.10;3.10;;;15.10;99.90;;;;;;5122519;27;20047;-73
2023/05/01 09:34:37;;;;;;;7.22;2.45;;;15.20;99.90;;;;;;5093479;28;20044;-73
2023/05/01 09:37:03;;;;;;;7.13;3.10;;;15.40;99.90;;;;;;5094330;28;20430;-73
2023/05/01 09:39:28;;;;;;;8.07;2.38;;;15.40;99.90;;;;;;5103058;28;20039;-73
2023/05/01 09:41:54;;;;;;;8.13;2.15;;;15.50;99.90;;;;;;5095671;28;20035;-73
2023/05/01 09:44:20;;;;;;;7.40;3.30;;;15.50;99.90;;;;;;5096109;28;20035;-73
2023/05/01 09:46:46;;;;;;;9.93;3.20;;;15.60;99.90;;;;;;5097215;28;20047;-73
2023/05/01 09:49:11;;;;;;;8.93;3.42;;;15.70;99.90;;;;;;5110721;27;20085;-73
2023/05/01 09:51:37;;;;;;;6.95;2.90;;;15.70;99.90;;;;;;5089836;28;20463;-73
2023/05/01 09:54:04;;;;;;;6.25;2.83;;;15.80;99.90;;;;;;5097090;28;20045;-72
2023/05/01 09:56:32;;;;;;;7.05;2.92;;;15.90;99.90;;;;;;5096838;28;20185;-73
2023/05/01 09:59:17;;;;;;;6.88;2.97;;;15.90;99.90;;;;;;5083200;28;20036;-73
2023/05/01 10:01:44;;;;;;;7.72;2.90;;;16.00;99.90;;;;;;5093640;28;20047;-72
2023/05/01 10:04:11;;;;;;;9.43;3.05;;;16.00;99.90;;;;;;5076583;28;20117;-73
2023/05/01 10:06:38;;;;;;;8.43;2.50;;;16.10;99.90;;;;;;5093372;28;20067;-72
2023/05/01 10:09:16;;;;;;;5.40;2.03;;;16.10;99.90;;;;;;5095288;28;20036;-73
2023/05/01 10:11:53;;;;;;;8.60;2.28;;;16.20;99.90;;;;;;5093534;28;20123;-76
2023/05/01 10:14:19;;;;;;;6.68;2.33;;;16.20;99.90;;;;;;5076381;28;20118;-75
2023/05/01 10:16:45;;;;;;;6.45;2.38;;;16.30;99.90;;;;;;5093454;28;20036;-76
2023/05/01 10:19:12;;;;;;;6.47;2.10;;;16.40;99.90;;;;;;5106378;28;20119;-76
2023/05/01 10:21:37;;;;;;;6.38;2.10;;;16.40;99.90;;;;;;5130821;27;20050;-75
2023/05/01 10:24:04;;;;;;;7.35;3.10;;;16.50;99.90;;;;;;5090235;28;20407;-76
2023/05/01 10:26:33;;;;;;;7.85;3.40;;;16.60;99.90;;;;;;5127198;27;20105;-76
2023/05/01 10:29:00;;;;;;;10.30;3.92;;;16.60;99.90;;;;;;5084069;28;20043;-77
2023/05/01 10:31:27;;;;;;;8.18;3.55;;;16.60;99.90;;;;;;5093720;28;20039;-74
2023/05/01 10:33:56;;;;;;;7.25;3.17;;;16.70;99.90;;;;;;5079092;28;20071;-77
2023/05/01 10:36:38;;;;;;;8.27;3.38;;;16.80;99.70;;;;;;5099007;27;20126;-77
2023/05/01 10:39:04;;;;;;;7.57;3.10;;;16.90;99.30;;;;;;5134076;27;20104;-77
2023/05/01 10:41:58;;;;;;;6.95;2.72;;;16.90;99.90;;;;;;5112092;28;20044;-77
2023/05/01 10:44:25;;;;;;;6.70;2.83;;;16.90;99.80;;;;;;5090599;28;20448;-79
2023/05/01 10:46:51;;;;;;;7.78;3.20;;;17.00;99.90;;;;;;5098486;28;20075;-76
2023/05/01 10:49:17;;;;;;;8.82;2.90;;;17.10;99.90;;;;;;5096566;28;20038;-74
2023/05/01 10:52:01;;;;;;;7.82;2.92;;;17.10;99.20;;;;;;5112324;28;20043;-74
2023/05/01 10:54:28;;;;;;;8.27;3.10;;;16.90;97.80;;;;;;5095422;28;20043;-74
2023/05/01 10:56:57;;;;;;;7.45;2.83;;;16.90;99.60;;;;;;5064504;28;20139;-71
2023/05/01 10:59:23;;;;;;;6.15;2.80;;;17.00;99.80;;;;;;5097089;28;20088;-72
2023/05/01 11:01:51;;;;;;;9.43;2.55;;;17.00;99.90;;;;;;5083519;28;20048;-71
2023/05/01 11:04:26;;;;;;;6.90;2.60;;;17.00;99.90;;;;;;5092397;28;20047;-71
2023/05/01 11:07:00;;;;;;;6.60;2.58;;;16.90;99.90;;;;;;5081266;28;20040;-72
2023/05/01 11:09:41;;;;;;;5.85;2.55;;;17.00;99.90;;;;;;5095364;28;20506;-72
2023/05/01 11:12:08;;;;;;;6.95;2.92;;;17.10;99.90;;;;;;5102811;28;20081;-72
2023/05/01 11:14:56;;;;;;;6.20;2.25;;;17.20;99.90;;;;;;5078134;28;20040;-72
2023/05/01 11:17:40;;;;;;;8.43;1.80;;;17.30;99.90;;;;;;5111794;28;20047;-72
2023/05/01 11:20:10;;;;;;;4.55;1.50;;;17.40;95.20;;;;;;5097603;28;20031;-72
2023/05/01 11:22:38;;;;;;;3.47;1.55;;;17.40;94.60;;;;;;5130665;27;20040;-71
2023/05/01 11:25:18;;;;;;;3.33;1.50;;;17.40;93.30;;;;;;5106786;28;20031;-71
2023/05/01 11:27:48;;;;;;;6.82;1.30;;;17.50;94.90;;;;;;5119190;28;20051;-72
2023/05/01 11:30:15;;;;;;;5.75;1.88;;;17.60;95.20;;;;;;5118398;28;20126;-72
2023/05/01 11:32:43;;;;;;;8.75;2.20;;;17.70;97.30;;;;;;5119178;28;20035;-72
2023/05/01 11:35:35;;;;;;;3.92;1.88;;;17.70;98.10;;;;;;5126655;27;20035;-71
2023/05/01 11:38:01;;;;;;;5.20;1.90;;;17.90;98.70;;;;;;5108547;28;20055;-72
2023/05/01 11:40:30;;;;;;;5.32;1.83;;;17.80;98.80;;;;;;5101420;28;20042;-72
2023/05/01 11:43:01;;;;;;;5.80;1.67;;;17.80;99.20;;;;;;5116845;27;20081;-72
2023/05/01 11:45:27;;;;;;;4.85;1.67;;;18.00;97.50;;;;;;5089298;28;20036;-72
2023/05/01 11:47:52;;;;;;;4.53;1.42;;;17.90;99.90;;;;;;5116010;28;20059;-72
2023/05/01 11:50:20;;;;;;;4.50;1.50;;;17.90;95.60;;;;;;5082896;28;20044;-72
2023/05/01 11:52:48;;;;;;;3.90;1.55;;;17.80;98.40;;;;;;5083670;28;20036;-72
2023/05/01 11:55:15;;;;;;;4.47;1.50;;;17.70;97.60;;;;;;5104479;27;20082;-72
2023/05/01 11:57:49;;;;;;;4.93;1.60;;;17.70;93.00;;;;;;5118893;28;20560;-72
2023/05/01 12:00:24;;;;;;;4.32;1.38;;;17.50;94.80;;;;;;5088783;28;20542;-72
2023/05/01 12:02:58;;;;;;;3.10;1.20;;;17.60;95.10;;;;;;5119248;28;20080;-72
2023/05/01 12:05:25;;;;;;;2.28;1.20;;;17.60;97.80;;;;;;5102437;28;20039;-72
2023/05/01 12:07:51;;;;;;;5.05;1.60;;;17.60;99.20;;;;;;5136508;27;20043;-72
2023/05/01 12:10:17;;;;;;;3.97;1.60;;;17.50;97.80;;;;;;5107163;27;20031;-72
2023/05/01 12:12:43;;;;;;;4.22;1.30;;;17.50;97.20;;;;;;5118857;28;20123;-71
2023/05/01 12:15:09;;;;;;;2.28;1.00;;;17.60;98.70;;;;;;5109860;28;20039;-72
2023/05/01 12:17:35;;;;;;;2.88;1.00;;;17.50;99.00;;;;;;5109413;28;20035;-72
2023/05/01 12:20:03;;;;;;;4.13;1.20;;;17.60;97.10;;;;;;5091551;28;20089;-73
2023/05/01 12:22:29;;;;;;;2.42;0.88;;;17.60;95.40;;;;;;5092912;28;20055;-73
2023/05/01 12:24:54;;;;;;;1.70;0.80;;;17.60;95.50;;;;;;5082122;28;20074;-73
2023/05/01 12:27:20;;;;;;;3.13;1.10;;;17.60;96.50;;;;;;5121572;27;20488;-73
2023/05/01 12:29:47;;;;;;;4.47;1.13;;;17.50;94.90;;;;;;5101556;28;20050;-74
2023/05/01 12:32:14;;;;;;;3.45;1.23;;;17.40;93.60;;;;;;5113719;28;20039;-73
2023/05/01 12:34:40;;;;;;;2.28;1.13;;;17.40;92.80;;;;;;5096653;28;20500;-73
2023/05/01 12:37:06;;;;;;;4.47;1.02;;;17.50;93.60;;;;;;5095002;28;20078;-73
2023/05/01 12:39:38;;;;;;;2.72;1.20;;;17.40;94.40;;;;;;5095129;28;20075;-73
2023/05/01 12:42:11;;;;;;;3.70;1.40;;;17.40;96.90;;;;;;5094751;28;20044;-73
2023/05/01 12:44:38;;;;;;;4.43;1.60;;;17.40;95.90;;;;;;5095855;28;20396;-73
2023/05/01 12:47:06;;;;;;;3.00;1.48;;;17.30;96.10;;;;;;5079223;28;20553;-74
2023/05/01 12:49:35;;;;;;;5.65;1.75;;;17.30;98.50;;;;;;5094583;28;20549;-74
2023/05/01 12:52:03;;;;;;;3.58;1.42;;;17.20;96.80;;;;;;5111915;28;20435;-73